Saint Anthony, North Dakota
Current Conditions -  °F | °C
As of 8:55 PM on Friday 28 Nov 2014 (Local Time) from KY19 Reporting Station
Clear Clear  
Wind Chill:   Ceiling: Unl
Heat Index: 14°   Visibility: 10mi
Dew Point: 14°   Wind: 7mph
Humidity: 100%   Direction: 130°SE
Pressure: 29.44"   Gusts: NA
Location:  46.62°N, 100.91°W
Report Text: KY19 290355Z AUTO 13006KT 10SM CLR M10/M10 A2944 RMK AO2
Loading
Personal Weather Stations






























Interactive Weather Map New forecast layout! Learn more

10-Day Weather Forecast

Advertisements
Track Severe Weather on mobile